sensor_id;sensor_type;location;lat;lon;timestamp;temperature;humidity
19435;DHT22;9853;50.848;4.108;2023-04-15T00:01:42;11.30;99.90
19435;DHT22;9853;50.848;4.108;2023-04-15T00:03:43;11.10;99.90
19435;DHT22;9853;50.848;4.108;2023-04-15T00:05:44;10.90;99.90
19435;DHT22;9853;50.848;4.108;2023-04-15T00:07:44;10.60;99.90
19435;DHT22;9853;50.848;4.108;2023-04-15T00:09:46;10.40;99.90
19435;DHT22;9853;50.848;4.108;2023-04-15T00:11:47;10.50;99.90
19435;DHT22;9853;50.848;4.108;2023-04-15T00:13:48;10.80;99.90
19435;DHT22;9853;50.848;4.108;2023-04-15T00:15:49;11.00;99.90
19435;DHT22;9853;50.848;4.108;2023-04-15T00:17:50;11.20;99.90
19435;DHT22;9853;50.848;4.108;2023-04-15T00:19:51;11.20;99.90
19435;DHT22;9853;50.848;4.108;2023-04-15T00:21:52;10.70;99.90
19435;DHT22;9853;50.848;4.108;2023-04-15T00:23:53;10.70;99.90
19435;DHT22;9853;50.848;4.108;2023-04-15T00:25:54;10.90;99.90
19435;DHT22;9853;50.848;4.108;2023-04-15T00:27:55;11.00;99.90
19435;DHT22;9853;50.848;4.108;2023-04-15T00:29:55;11.10;99.90
19435;DHT22;9853;50.848;4.108;2023-04-15T00:31:56;11.70;99.90
19435;DHT22;9853;50.848;4.108;2023-04-15T00:33:57;11.50;99.90
19435;DHT22;9853;50.848;4.108;2023-04-15T00:35:59;11.40;99.90
19435;DHT22;9853;50.848;4.108;2023-04-15T00:37:59;11.50;99.90
19435;DHT22;9853;50.848;4.108;2023-04-15T00:40:00;11.30;99.90
19435;DHT22;9853;50.848;4.108;2023-04-15T00:42:03;10.80;99.90
19435;DHT22;9853;50.848;4.108;2023-04-15T00:44:07;11.10;99.90
19435;DHT22;9853;50.848;4.108;2023-04-15T00:46:08;11.30;99.90
19435;DHT22;9853;50.848;4.108;2023-04-15T00:48:10;11.40;99.90
19435;DHT22;9853;50.848;4.108;2023-04-15T00:50:11;11.50;99.90
19435;DHT22;9853;50.848;4.108;2023-04-15T00:52:12;11.40;99.90
19435;DHT22;9853;50.848;4.108;2023-04-15T00:54:13;11.30;99.90
19435;DHT22;9853;50.848;4.108;2023-04-15T00:56:14;11.20;99.90
19435;DHT22;9853;50.848;4.108;2023-04-15T00:58:15;11.20;99.90
19435;DHT22;9853;50.848;4.108;2023-04-15T01:00:16;11.20;99.90
19435;DHT22;9853;50.848;4.108;2023-04-15T01:02:19;11.20;99.90
19435;DHT22;9853;50.848;4.108;2023-04-15T01:04:20;11.20;99.90
19435;DHT22;9853;50.848;4.108;2023-04-15T01:06:21;11.00;99.90
19435;DHT22;9853;50.848;4.108;2023-04-15T01:08:21;11.00;99.90
19435;DHT22;9853;50.848;4.108;2023-04-15T01:10:22;10.90;99.90
19435;DHT22;9853;50.848;4.108;2023-04-15T01:12:25;10.80;99.90
19435;DHT22;9853;50.848;4.108;2023-04-15T01:14:26;10.90;99.90
19435;DHT22;9853;50.848;4.108;2023-04-15T01:16:27;11.00;99.90
19435;DHT22;9853;50.848;4.108;2023-04-15T01:18:28;11.00;99.90
19435;DHT22;9853;50.848;4.108;2023-04-15T01:20:29;10.60;99.90
19435;DHT22;9853;50.848;4.108;2023-04-15T01:22:32;10.80;99.90
19435;DHT22;9853;50.848;4.108;2023-04-15T01:24:34;11.00;99.90
19435;DHT22;9853;50.848;4.108;2023-04-15T01:26:39;10.90;99.90
19435;DHT22;9853;50.848;4.108;2023-04-15T01:28:42;11.10;99.90
19435;DHT22;9853;50.848;4.108;2023-04-15T01:30:43;11.10;99.90
19435;DHT22;9853;50.848;4.108;2023-04-15T01:32:44;11.10;99.90
19435;DHT22;9853;50.848;4.108;2023-04-15T01:34:45;11.00;99.90
19435;DHT22;9853;50.848;4.108;2023-04-15T01:36:46;11.20;99.90
19435;DHT22;9853;50.848;4.108;2023-04-15T01:38:48;11.30;99.90
19435;DHT22;9853;50.848;4.108;2023-04-15T01:40:48;11.30;99.90
19435;DHT22;9853;50.848;4.108;2023-04-15T01:42:49;11.40;99.90
19435;DHT22;9853;50.848;4.108;2023-04-15T01:44:50;10.90;99.90
19435;DHT22;9853;50.848;4.108;2023-04-15T01:46:51;10.90;99.90
19435;DHT22;9853;50.848;4.108;2023-04-15T01:48:53;11.00;99.90
19435;DHT22;9853;50.848;4.108;2023-04-15T01:50:54;11.10;99.90
19435;DHT22;9853;50.848;4.108;2023-04-15T01:52:57;10.90;99.90
19435;DHT22;9853;50.848;4.108;2023-04-15T01:54:58;10.80;99.90
19435;DHT22;9853;50.848;4.108;2023-04-15T01:56:58;10.90;99.90
19435;DHT22;9853;50.848;4.108;2023-04-15T01:58:59;11.20;99.90
19435;DHT22;9853;50.848;4.108;2023-04-15T02:01:01;11.30;99.90
19435;DHT22;9853;50.848;4.108;2023-04-15T02:03:04;10.70;99.90
19435;DHT22;9853;50.848;4.108;2023-04-15T02:05:06;10.50;99.90
19435;DHT22;9853;50.848;4.108;2023-04-15T02:07:07;10.30;99.90
19435;DHT22;9853;50.848;4.108;2023-04-15T02:09:09;10.40;99.90
19435;DHT22;9853;50.848;4.108;2023-04-15T02:11:11;10.50;99.90
19435;DHT22;9853;50.848;4.108;2023-04-15T02:13:12;10.50;99.90
19435;DHT22;9853;50.848;4.108;2023-04-15T02:15:13;10.60;99.90
19435;DHT22;9853;50.848;4.108;2023-04-15T02:17:14;10.70;99.90
19435;DHT22;9853;50.848;4.108;2023-04-15T02:19:17;10.70;99.90
19435;DHT22;9853;50.848;4.108;2023-04-15T02:21:17;10.70;99.90
19435;DHT22;9853;50.848;4.108;2023-04-15T02:23:18;10.60;99.90
19435;DHT22;9853;50.848;4.108;2023-04-15T02:25:19;10.30;99.90
19435;DHT22;9853;50.848;4.108;2023-04-15T02:27:20;10.10;99.90
19435;DHT22;9853;50.848;4.108;2023-04-15T02:29:24;10.10;99.90
19435;DHT22;9853;50.848;4.108;2023-04-15T02:31:25;10.00;99.90
19435;DHT22;9853;50.848;4.108;2023-04-15T02:33:26;9.90;99.90
19435;DHT22;9853;50.848;4.108;2023-04-15T02:35:27;9.70;99.90
19435;DHT22;9853;50.848;4.108;2023-04-15T02:37:28;9.80;99.90
19435;DHT22;9853;50.848;4.108;2023-04-15T02:39:31;9.90;99.90
19435;DHT22;9853;50.848;4.108;2023-04-15T02:41:32;10.00;99.90
19435;DHT22;9853;50.848;4.108;2023-04-15T02:43:33;10.10;99.90
19435;DHT22;9853;50.848;4.108;2023-04-15T02:45:34;10.20;99.90
19435;DHT22;9853;50.848;4.108;2023-04-15T02:47:37;10.30;99.90
19435;DHT22;9853;50.848;4.108;2023-04-15T02:49:40;10.20;99.90
19435;DHT22;9853;50.848;4.108;2023-04-15T02:51:41;10.00;99.90
19435;DHT22;9853;50.848;4.108;2023-04-15T02:53:42;9.90;99.90
19435;DHT22;9853;50.848;4.108;2023-04-15T02:55:43;10.00;99.90
19435;DHT22;9853;50.848;4.108;2023-04-15T02:57:44;10.00;99.90
19435;DHT22;9853;50.848;4.108;2023-04-15T02:59:45;9.80;99.90
19435;DHT22;9853;50.848;4.108;2023-04-15T03:01:46;9.60;99.90
19435;DHT22;9853;50.848;4.108;2023-04-15T03:03:46;9.60;99.90
19435;DHT22;9853;50.848;4.108;2023-04-15T03:05:47;9.70;99.90
19435;DHT22;9853;50.848;4.108;2023-04-15T03:07:48;9.90;99.90
19435;DHT22;9853;50.848;4.108;2023-04-15T03:09:50;10.10;99.90
19435;DHT22;9853;50.848;4.108;2023-04-15T03:11:51;10.30;99.90
19435;DHT22;9853;50.848;4.108;2023-04-15T03:13:54;10.50;99.90
19435;DHT22;9853;50.848;4.108;2023-04-15T03:16:04;10.50;99.90
19435;DHT22;9853;50.848;4.108;2023-04-15T03:18:06;10.60;99.90
19435;DHT22;9853;50.848;4.108;2023-04-15T03:20:08;10.60;99.90
19435;DHT22;9853;50.848;4.108;2023-04-15T03:22:09;10.50;99.90
19435;DHT22;9853;50.848;4.108;2023-04-15T03:24:09;10.50;99.90
19435;DHT22;9853;50.848;4.108;2023-04-15T03:26:31;10.50;99.90
19435;DHT22;9853;50.848;4.108;2023-04-15T03:28:35;10.60;99.90
19435;DHT22;9853;50.848;4.108;2023-04-15T03:30:36;10.60;99.90
19435;DHT22;9853;50.848;4.108;2023-04-15T03:32:37;10.60;99.90
19435;DHT22;9853;50.848;4.108;2023-04-15T03:34:43;10.60;99.90
19435;DHT22;9853;50.848;4.108;2023-04-15T03:36:45;10.50;99.90
19435;DHT22;9853;50.848;4.108;2023-04-15T03:38:46;10.40;99.90
19435;DHT22;9853;50.848;4.108;2023-04-15T03:40:47;10.60;99.90
19435;DHT22;9853;50.848;4.108;2023-04-15T03:42:47;10.80;99.90
19435;DHT22;9853;50.848;4.108;2023-04-15T03:44:48;10.50;99.90
19435;DHT22;9853;50.848;4.108;2023-04-15T03:46:49;10.20;99.90
19435;DHT22;9853;50.848;4.108;2023-04-15T03:48:50;10.10;99.90
19435;DHT22;9853;50.848;4.108;2023-04-15T03:50:50;9.90;99.90
19435;DHT22;9853;50.848;4.108;2023-04-15T03:52:51;9.90;99.90
19435;DHT22;9853;50.848;4.108;2023-04-15T03:54:52;10.40;99.90
19435;DHT22;9853;50.848;4.108;2023-04-15T03:56:52;10.80;99.90
19435;DHT22;9853;50.848;4.108;2023-04-15T03:58:53;10.70;99.90
19435;DHT22;9853;50.848;4.108;2023-04-15T04:00:54;10.60;99.90
19435;DHT22;9853;50.848;4.108;2023-04-15T04:02:55;10.30;99.90
19435;DHT22;9853;50.848;4.108;2023-04-15T04:04:55;10.20;99.90
19435;DHT22;9853;50.848;4.108;2023-04-15T04:06:56;10.20;99.90
19435;DHT22;9853;50.848;4.108;2023-04-15T04:08:57;10.00;99.90
19435;DHT22;9853;50.848;4.108;2023-04-15T04:10:57;10.10;99.90
19435;DHT22;9853;50.848;4.108;2023-04-15T04:12:58;9.80;99.90
19435;DHT22;9853;50.848;4.108;2023-04-15T04:14:59;9.60;99.90
19435;DHT22;9853;50.848;4.108;2023-04-15T04:17:00;9.40;99.90
19435;DHT22;9853;50.848;4.108;2023-04-15T04:19:00;9.40;99.90
19435;DHT22;9853;50.848;4.108;2023-04-15T04:21:01;9.20;99.90
19435;DHT22;9853;50.848;4.108;2023-04-15T04:23:02;9.30;99.90
19435;DHT22;9853;50.848;4.108;2023-04-15T04:25:03;9.30;99.90
19435;DHT22;9853;50.848;4.108;2023-04-15T04:27:04;9.40;99.90
19435;DHT22;9853;50.848;4.108;2023-04-15T04:29:04;9.40;99.90
19435;DHT22;9853;50.848;4.108;2023-04-15T04:31:06;9.40;99.90
19435;DHT22;9853;50.848;4.108;2023-04-15T04:33:07;9.50;99.90
19435;DHT22;9853;50.848;4.108;2023-04-15T04:35:08;9.60;99.90
19435;DHT22;9853;50.848;4.108;2023-04-15T04:37:08;9.60;99.90
19435;DHT22;9853;50.848;4.108;2023-04-15T04:39:09;9.50;99.90
19435;DHT22;9853;50.848;4.108;2023-04-15T04:41:10;9.60;99.90
19435;DHT22;9853;50.848;4.108;2023-04-15T04:43:11;9.70;99.90
19435;DHT22;9853;50.848;4.108;2023-04-15T04:45:12;9.70;99.90
19435;DHT22;9853;50.848;4.108;2023-04-15T04:47:13;9.70;99.90
19435;DHT22;9853;50.848;4.108;2023-04-15T04:49:14;9.70;99.90
19435;DHT22;9853;50.848;4.108;2023-04-15T04:51:15;9.50;99.90
19435;DHT22;9853;50.848;4.108;2023-04-15T04:53:16;9.40;99.90
19435;DHT22;9853;50.848;4.108;2023-04-15T04:55:17;9.30;99.90
19435;DHT22;9853;50.848;4.108;2023-04-15T04:57:18;9.10;99.90
19435;DHT22;9853;50.848;4.108;2023-04-15T04:59:18;9.00;99.90
19435;DHT22;9853;50.848;4.108;2023-04-15T05:01:19;9.20;99.90
19435;DHT22;9853;50.848;4.108;2023-04-15T05:03:20;9.20;99.90
19435;DHT22;9853;50.848;4.108;2023-04-15T05:05:21;9.20;99.90
19435;DHT22;9853;50.848;4.108;2023-04-15T05:07:22;9.20;99.90
19435;DHT22;9853;50.848;4.108;2023-04-15T05:09:23;9.30;99.90
19435;DHT22;9853;50.848;4.108;2023-04-15T05:11:23;10.00;99.90
19435;DHT22;9853;50.848;4.108;2023-04-15T05:13:24;10.60;99.90
19435;DHT22;9853;50.848;4.108;2023-04-15T05:15:25;10.70;99.90
19435;DHT22;9853;50.848;4.108;2023-04-15T05:17:26;10.80;99.90
19435;DHT22;9853;50.848;4.108;2023-04-15T05:19:26;10.60;99.90
19435;DHT22;9853;50.848;4.108;2023-04-15T05:21:27;10.20;99.90
19435;DHT22;9853;50.848;4.108;2023-04-15T05:23:28;9.90;99.90
19435;DHT22;9853;50.848;4.108;2023-04-15T05:25:29;9.80;99.90
19435;DHT22;9853;50.848;4.108;2023-04-15T05:27:29;9.90;99.90
19435;DHT22;9853;50.848;4.108;2023-04-15T05:29:30;9.90;99.90
19435;DHT22;9853;50.848;4.108;2023-04-15T05:31:31;9.80;99.90
19435;DHT22;9853;50.848;4.108;2023-04-15T05:33:32;9.70;99.90
19435;DHT22;9853;50.848;4.108;2023-04-15T05:35:32;9.60;99.90
19435;DHT22;9853;50.848;4.108;2023-04-15T05:37:33;9.60;99.90
19435;DHT22;9853;50.848;4.108;2023-04-15T05:39:34;9.70;99.90
19435;DHT22;9853;50.848;4.108;2023-04-15T05:41:35;9.50;99.90
19435;DHT22;9853;50.848;4.108;2023-04-15T05:43:35;9.10;99.90
19435;DHT22;9853;50.848;4.108;2023-04-15T05:45:36;9.00;99.90
19435;DHT22;9853;50.848;4.108;2023-04-15T05:47:37;9.10;99.90
19435;DHT22;9853;50.848;4.108;2023-04-15T05:49:38;9.00;99.90
19435;DHT22;9853;50.848;4.108;2023-04-15T05:51:39;9.20;99.90
19435;DHT22;9853;50.848;4.108;2023-04-15T05:53:40;9.20;99.90
19435;DHT22;9853;50.848;4.108;2023-04-15T05:55:41;9.20;99.90
19435;DHT22;9853;50.848;4.108;2023-04-15T05:57:41;9.40;99.90
19435;DHT22;9853;50.848;4.108;2023-04-15T05:59:42;9.60;99.90
19435;DHT22;9853;50.848;4.108;2023-04-15T06:01:44;9.80;99.90
19435;DHT22;9853;50.848;4.108;2023-04-15T06:03:45;9.90;99.90
19435;DHT22;9853;50.848;4.108;2023-04-15T06:05:45;10.00;99.90
19435;DHT22;9853;50.848;4.108;2023-04-15T06:07:46;10.10;99.90
19435;DHT22;9853;50.848;4.108;2023-04-15T06:09:47;10.30;99.90
19435;DHT22;9853;50.848;4.108;2023-04-15T06:11:48;10.40;99.90
19435;DHT22;9853;50.848;4.108;2023-04-15T06:13:49;10.50;99.90
19435;DHT22;9853;50.848;4.108;2023-04-15T06:15:49;10.60;99.90
19435;DHT22;9853;50.848;4.108;2023-04-15T06:17:50;10.80;99.90
19435;DHT22;9853;50.848;4.108;2023-04-15T06:19:51;11.00;99.90
19435;DHT22;9853;50.848;4.108;2023-04-15T06:21:55;11.00;99.90
19435;DHT22;9853;50.848;4.108;2023-04-15T06:23:57;11.00;99.90
19435;DHT22;9853;50.848;4.108;2023-04-15T06:25:57;11.20;99.90
19435;DHT22;9853;50.848;4.108;2023-04-15T06:27:58;11.20;99.90
19435;DHT22;9853;50.848;4.108;2023-04-15T06:29:59;11.00;99.90
19435;DHT22;9853;50.848;4.108;2023-04-15T06:32:00;11.10;99.90
19435;DHT22;9853;50.848;4.108;2023-04-15T06:34:01;11.40;99.90
19435;DHT22;9853;50.848;4.108;2023-04-15T06:36:01;11.30;99.90
19435;DHT22;9853;50.848;4.108;2023-04-15T06:38:02;11.30;99.90
19435;DHT22;9853;50.848;4.108;2023-04-15T06:40:05;11.30;99.90
19435;DHT22;9853;50.848;4.108;2023-04-15T06:42:06;11.50;99.90
19435;DHT22;9853;50.848;4.108;2023-04-15T06:44:06;11.70;99.90
19435;DHT22;9853;50.848;4.108;2023-04-15T06:46:07;11.70;99.90
19435;DHT22;9853;50.848;4.108;2023-04-15T06:48:08;11.50;99.90
19435;DHT22;9853;50.848;4.108;2023-04-15T06:50:09;11.70;99.90
19435;DHT22;9853;50.848;4.108;2023-04-15T06:52:11;11.80;99.90
19435;DHT22;9853;50.848;4.108;2023-04-15T06:54:12;11.80;99.90
19435;DHT22;9853;50.848;4.108;2023-04-15T06:56:13;12.00;99.90
19435;DHT22;9853;50.848;4.108;2023-04-15T06:58:13;12.20;99.90
19435;DHT22;9853;50.848;4.108;2023-04-15T07:00:14;12.20;99.90
19435;DHT22;9853;50.848;4.108;2023-04-15T07:02:16;12.20;99.90
19435;DHT22;9853;50.848;4.108;2023-04-15T07:04:16;11.80;99.90
19435;DHT22;9853;50.848;4.108;2023-04-15T07:06:17;11.70;99.90
19435;DHT22;9853;50.848;4.108;2023-04-15T07:08:19;12.50;99.90
19435;DHT22;9853;50.848;4.108;2023-04-15T07:10:20;12.80;99.90
19435;DHT22;9853;50.848;4.108;2023-04-15T07:12:20;12.80;99.90
19435;DHT22;9853;50.848;4.108;2023-04-15T07:14:21;12.50;99.90
19435;DHT22;9853;50.848;4.108;2023-04-15T07:16:22;12.40;99.90
19435;DHT22;9853;50.848;4.108;2023-04-15T07:18:23;12.10;99.90
19435;DHT22;9853;50.848;4.108;2023-04-15T07:20:23;12.10;99.90
19435;DHT22;9853;50.848;4.108;2023-04-15T07:22:25;12.40;99.90
19435;DHT22;9853;50.848;4.108;2023-04-15T07:24:25;12.30;99.90
19435;DHT22;9853;50.848;4.108;2023-04-15T07:26:26;12.10;99.90
19435;DHT22;9853;50.848;4.108;2023-04-15T07:28:27;12.00;99.90
19435;DHT22;9853;50.848;4.108;2023-04-15T07:30:28;11.90;99.90
19435;DHT22;9853;50.848;4.108;2023-04-15T07:32:29;12.10;99.90
19435;DHT22;9853;50.848;4.108;2023-04-15T07:34:29;12.20;99.90
19435;DHT22;9853;50.848;4.108;2023-04-15T07:36:30;12.30;99.90
19435;DHT22;9853;50.848;4.108;2023-04-15T07:38:31;12.40;99.90
19435;DHT22;9853;50.848;4.108;2023-04-15T07:40:32;12.50;99.90
19435;DHT22;9853;50.848;4.108;2023-04-15T07:42:33;12.50;99.90
19435;DHT22;9853;50.848;4.108;2023-04-15T07:44:34;12.20;99.90
19435;DHT22;9853;50.848;4.108;2023-04-15T07:46:35;12.10;99.90
19435;DHT22;9853;50.848;4.108;2023-04-15T07:48:36;12.20;99.90
19435;DHT22;9853;50.848;4.108;2023-04-15T07:50:37;12.30;99.90
19435;DHT22;9853;50.848;4.108;2023-04-15T07:52:38;12.50;99.90
19435;DHT22;9853;50.848;4.108;2023-04-15T07:54:39;12.60;99.90
19435;DHT22;9853;50.848;4.108;2023-04-15T07:56:40;12.80;99.90
19435;DHT22;9853;50.848;4.108;2023-04-15T07:58:41;12.90;99.90
19435;DHT22;9853;50.848;4.108;2023-04-15T08:00:42;12.90;99.90
19435;DHT22;9853;50.848;4.108;2023-04-15T08:02:42;12.80;99.90
19435;DHT22;9853;50.848;4.108;2023-04-15T08:04:43;12.90;99.90
19435;DHT22;9853;50.848;4.108;2023-04-15T08:06:44;12.80;99.90
19435;DHT22;9853;50.848;4.108;2023-04-15T08:08:45;13.00;99.90
19435;DHT22;9853;50.848;4.108;2023-04-15T08:10:46;13.30;99.90
19435;DHT22;9853;50.848;4.108;2023-04-15T08:12:47;13.50;99.90
19435;DHT22;9853;50.848;4.108;2023-04-15T08:14:49;13.50;99.90
19435;DHT22;9853;50.848;4.108;2023-04-15T08:16:50;13.60;99.90
19435;DHT22;9853;50.848;4.108;2023-04-15T08:18:52;13.80;99.90
19435;DHT22;9853;50.848;4.108;2023-04-15T08:20:53;14.10;99.90
19435;DHT22;9853;50.848;4.108;2023-04-15T08:22:54;14.60;99.90
19435;DHT22;9853;50.848;4.108;2023-04-15T08:24:54;14.90;99.90
19435;DHT22;9853;50.848;4.108;2023-04-15T08:26:55;15.30;99.90
19435;DHT22;9853;50.848;4.108;2023-04-15T08:28:57;15.50;99.90
19435;DHT22;9853;50.848;4.108;2023-04-15T08:30:57;15.50;99.90
19435;DHT22;9853;50.848;4.108;2023-04-15T08:32:58;15.50;99.90
19435;DHT22;9853;50.848;4.108;2023-04-15T08:35:00;15.80;99.90
19435;DHT22;9853;50.848;4.108;2023-04-15T08:37:01;16.00;99.90
19435;DHT22;9853;50.848;4.108;2023-04-15T08:39:02;16.10;99.90
19435;DHT22;9853;50.848;4.108;2023-04-15T08:41:14;16.10;99.90
19435;DHT22;9853;50.848;4.108;2023-04-15T08:43:21;16.20;99.90
19435;DHT22;9853;50.848;4.108;2023-04-15T08:45:28;16.30;99.90
19435;DHT22;9853;50.848;4.108;2023-04-15T08:47:29;16.30;99.90
19435;DHT22;9853;50.848;4.108;2023-04-15T08:49:38;15.90;99.90
19435;DHT22;9853;50.848;4.108;2023-04-15T08:51:40;15.50;99.90
19435;DHT22;9853;50.848;4.108;2023-04-15T08:53:45;15.20;99.90
19435;DHT22;9853;50.848;4.108;2023-04-15T08:55:51;15.00;99.90
19435;DHT22;9853;50.848;4.108;2023-04-15T08:57:52;14.60;99.90
19435;DHT22;9853;50.848;4.108;2023-04-15T08:59:55;14.60;99.90
19435;DHT22;9853;50.848;4.108;2023-04-15T09:01:56;14.50;99.90
19435;DHT22;9853;50.848;4.108;2023-04-15T09:03:58;14.50;99.90
19435;DHT22;9853;50.848;4.108;2023-04-15T09:05:59;14.30;99.90
19435;DHT22;9853;50.848;4.108;2023-04-15T09:08:01;14.20;99.90
19435;DHT22;9853;50.848;4.108;2023-04-15T09:10:03;14.20;99.90
19435;DHT22;9853;50.848;4.108;2023-04-15T09:12:03;14.30;99.90
19435;DHT22;9853;50.848;4.108;2023-04-15T09:14:04;14.10;99.90
19435;DHT22;9853;50.848;4.108;2023-04-15T09:16:05;13.90;99.90
19435;DHT22;9853;50.848;4.108;2023-04-15T09:18:06;13.90;99.90
19435;DHT22;9853;50.848;4.108;2023-04-15T09:22:09;14.20;99.90
19435;DHT22;9853;50.848;4.108;2023-04-15T09:24:10;14.40;99.90
19435;DHT22;9853;50.848;4.108;2023-04-15T09:26:10;14.50;99.90
19435;DHT22;9853;50.848;4.108;2023-04-15T09:28:11;14.80;99.90
19435;DHT22;9853;50.848;4.108;2023-04-15T09:30:12;15.10;99.90
19435;DHT22;9853;50.848;4.108;2023-04-15T09:32:14;15.10;99.90
19435;DHT22;9853;50.848;4.108;2023-04-15T09:34:15;15.20;99.90
19435;DHT22;9853;50.848;4.108;2023-04-15T09:36:16;15.50;99.90
19435;DHT22;9853;50.848;4.108;2023-04-15T09:38:17;15.50;99.90
19435;DHT22;9853;50.848;4.108;2023-04-15T09:40:31;15.50;99.90
19435;DHT22;9853;50.848;4.108;2023-04-15T09:42:35;16.00;99.90
19435;DHT22;9853;50.848;4.108;2023-04-15T09:44:37;16.20;99.90
19435;DHT22;9853;50.848;4.108;2023-04-15T09:46:41;16.60;99.90
19435;DHT22;9853;50.848;4.108;2023-04-15T09:48:42;16.70;99.90
19435;DHT22;9853;50.848;4.108;2023-04-15T09:50:43;16.40;99.90
19435;DHT22;9853;50.848;4.108;2023-04-15T09:52:44;16.10;99.90
19435;DHT22;9853;50.848;4.108;2023-04-15T09:54:45;15.90;99.90
19435;DHT22;9853;50.848;4.108;2023-04-15T09:56:46;15.90;99.90
19435;DHT22;9853;50.848;4.108;2023-04-15T09:58:55;16.10;99.90
19435;DHT22;9853;50.848;4.108;2023-04-15T10:00:58;16.40;99.90
19435;DHT22;9853;50.848;4.108;2023-04-15T10:02:59;16.70;99.90
19435;DHT22;9853;50.848;4.108;2023-04-15T10:05:03;16.70;99.90
19435;DHT22;9853;50.848;4.108;2023-04-15T10:07:07;16.80;99.90
19435;DHT22;9853;50.848;4.108;2023-04-15T10:09:08;16.90;99.90
19435;DHT22;9853;50.848;4.108;2023-04-15T10:11:10;16.40;99.90
19435;DHT22;9853;50.848;4.108;2023-04-15T10:13:19;16.00;99.90
19435;DHT22;9853;50.848;4.108;2023-04-15T10:15:22;15.80;99.90
19435;DHT22;9853;50.848;4.108;2023-04-15T10:17:27;15.60;99.90
19435;DHT22;9853;50.848;4.108;2023-04-15T10:19:35;15.50;99.90
19435;DHT22;9853;50.848;4.108;2023-04-15T10:21:36;15.30;99.90
19435;DHT22;9853;50.848;4.108;2023-04-15T10:23:37;15.30;99.90
19435;DHT22;9853;50.848;4.108;2023-04-15T10:25:39;15.40;99.90
19435;DHT22;9853;50.848;4.108;2023-04-15T10:27:40;15.30;99.90
19435;DHT22;9853;50.848;4.108;2023-04-15T10:29:41;15.40;99.90
19435;DHT22;9853;50.848;4.108;2023-04-15T10:31:43;15.50;99.90
19435;DHT22;9853;50.848;4.108;2023-04-15T10:33:45;15.40;99.90
19435;DHT22;9853;50.848;4.108;2023-04-15T10:35:49;15.40;99.90
19435;DHT22;9853;50.848;4.108;2023-04-15T10:37:51;15.30;99.90
19435;DHT22;9853;50.848;4.108;2023-04-15T10:39:51;15.30;99.90
19435;DHT22;9853;50.848;4.108;2023-04-15T10:44:06;15.30;99.90
19435;DHT22;9853;50.848;4.108;2023-04-15T10:46:07;15.40;99.90
19435;DHT22;9853;50.848;4.108;2023-04-15T10:48:09;15.40;99.90
19435;DHT22;9853;50.848;4.108;2023-04-15T10:50:18;15.40;99.90
19435;DHT22;9853;50.848;4.108;2023-04-15T10:52:24;15.40;99.90
19435;DHT22;9853;50.848;4.108;2023-04-15T10:56:29;15.60;99.90
19435;DHT22;9853;50.848;4.108;2023-04-15T10:58:40;15.60;99.90
19435;DHT22;9853;50.848;4.108;2023-04-15T11:00:49;15.60;99.90
19435;DHT22;9853;50.848;4.108;2023-04-15T11:04:54;15.60;99.90
19435;DHT22;9853;50.848;4.108;2023-04-15T11:07:06;15.40;99.90
19435;DHT22;9853;50.848;4.108;2023-04-15T11:09:07;15.40;99.90
19435;DHT22;9853;50.848;4.108;2023-04-15T11:11:09;15.30;99.90
19435;DHT22;9853;50.848;4.108;2023-04-15T11:15:34;15.30;99.90
19435;DHT22;9853;50.848;4.108;2023-04-15T11:17:35;15.40;99.90
19435;DHT22;9853;50.848;4.108;2023-04-15T11:19:37;15.50;99.90
19435;DHT22;9853;50.848;4.108;2023-04-15T11:21:38;15.50;99.90
19435;DHT22;9853;50.848;4.108;2023-04-15T11:23:40;15.60;99.90
19435;DHT22;9853;50.848;4.108;2023-04-15T11:25:46;15.60;99.90
19435;DHT22;9853;50.848;4.108;2023-04-15T11:27:47;15.60;99.90
19435;DHT22;9853;50.848;4.108;2023-04-15T11:29:49;15.60;99.90
19435;DHT22;9853;50.848;4.108;2023-04-15T11:31:50;15.60;99.90
19435;DHT22;9853;50.848;4.108;2023-04-15T11:34:08;15.60;99.90
19435;DHT22;9853;50.848;4.108;2023-04-15T11:36:09;15.50;99.90
19435;DHT22;9853;50.848;4.108;2023-04-15T11:38:11;15.50;99.90
19435;DHT22;9853;50.848;4.108;2023-04-15T11:40:13;15.40;99.90
19435;DHT22;9853;50.848;4.108;2023-04-15T11:42:17;15.40;99.90
19435;DHT22;9853;50.848;4.108;2023-04-15T11:44:18;15.50;99.90
19435;DHT22;9853;50.848;4.108;2023-04-15T11:46:19;15.60;99.90
19435;DHT22;9853;50.848;4.108;2023-04-15T11:50:26;16.00;99.90
19435;DHT22;9853;50.848;4.108;2023-04-15T11:52:26;15.70;99.90
19435;DHT22;9853;50.848;4.108;2023-04-15T11:54:27;15.50;99.90
19435;DHT22;9853;50.848;4.108;2023-04-15T11:56:28;15.50;99.90
19435;DHT22;9853;50.848;4.108;2023-04-15T11:58:29;15.50;99.90
19435;DHT22;9853;50.848;4.108;2023-04-15T12:00:29;15.60;99.90
19435;DHT22;9853;50.848;4.108;2023-04-15T12:02:31;15.50;99.90
19435;DHT22;9853;50.848;4.108;2023-04-15T12:04:32;15.70;99.90
19435;DHT22;9853;50.848;4.108;2023-04-15T12:06:33;15.90;99.90
19435;DHT22;9853;50.848;4.108;2023-04-15T12:08:50;16.00;99.90
19435;DHT22;9853;50.848;4.108;2023-04-15T12:10:58;16.00;99.90
19435;DHT22;9853;50.848;4.108;2023-04-15T12:12:59;16.10;99.90
19435;DHT22;9853;50.848;4.108;2023-04-15T12:15:02;16.10;99.90
19435;DHT22;9853;50.848;4.108;2023-04-15T12:17:04;16.20;99.90
19435;DHT22;9853;50.848;4.108;2023-04-15T12:19:17;16.00;99.90
19435;DHT22;9853;50.848;4.108;2023-04-15T12:21:20;16.00;99.90
19435;DHT22;9853;50.848;4.108;2023-04-15T12:23:20;16.00;99.90
19435;DHT22;9853;50.848;4.108;2023-04-15T12:25:33;15.90;99.90
19435;DHT22;9853;50.848;4.108;2023-04-15T12:27:34;15.90;99.90
19435;DHT22;9853;50.848;4.108;2023-04-15T12:29:37;15.90;99.90
19435;DHT22;9853;50.848;4.108;2023-04-15T12:31:52;16.00;99.90
19435;DHT22;9853;50.848;4.108;2023-04-15T12:33:57;15.90;99.90
19435;DHT22;9853;50.848;4.108;2023-04-15T12:35:58;15.90;99.90
19435;DHT22;9853;50.848;4.108;2023-04-15T12:37:59;15.90;99.90
19435;DHT22;9853;50.848;4.108;2023-04-15T12:40:00;15.80;99.90
19435;DHT22;9853;50.848;4.108;2023-04-15T12:42:01;15.80;99.90
19435;DHT22;9853;50.848;4.108;2023-04-15T12:44:02;15.90;99.90
19435;DHT22;9853;50.848;4.108;2023-04-15T12:46:03;15.80;99.90
19435;DHT22;9853;50.848;4.108;2023-04-15T12:48:04;15.90;99.90
19435;DHT22;9853;50.848;4.108;2023-04-15T12:50:06;16.00;99.90
19435;DHT22;9853;50.848;4.108;2023-04-15T12:52:07;16.10;99.90
19435;DHT22;9853;50.848;4.108;2023-04-15T12:54:07;16.00;99.90
19435;DHT22;9853;50.848;4.108;2023-04-15T12:56:08;15.90;99.90
19435;DHT22;9853;50.848;4.108;2023-04-15T12:58:09;15.90;99.90
19435;DHT22;9853;50.848;4.108;2023-04-15T13:00:11;15.80;99.90
19435;DHT22;9853;50.848;4.108;2023-04-15T13:02:12;15.80;99.90
19435;DHT22;9853;50.848;4.108;2023-04-15T13:04:14;15.70;99.90
19435;DHT22;9853;50.848;4.108;2023-04-15T13:06:16;15.70;99.90
19435;DHT22;9853;50.848;4.108;2023-04-15T13:08:17;15.80;99.90
19435;DHT22;9853;50.848;4.108;2023-04-15T13:10:17;15.90;99.90
19435;DHT22;9853;50.848;4.108;2023-04-15T13:12:18;15.90;99.90
19435;DHT22;9853;50.848;4.108;2023-04-15T13:14:19;15.90;99.90
19435;DHT22;9853;50.848;4.108;2023-04-15T13:16:20;15.90;99.90